Aviation Digital Data Service (ADDS)

Output produced by METARs form (1659 UTC 24 August 2019)
found at http://www.aviationweather.gov/metar/data/
 
TAF RJFF 241106Z 2412/2518 15012KT 9000 -RA FEW020 SCT030